Time;durP1;ratioP1;P1;durP2;ratioP2;P2;SDS_P1;SDS_P2;PMS_P1;PMS_P2;Temp;Humidity;BMP_temperature;BMP_pressure;BME280_temperature;BME280_humidity;BME280_pressure;Samples;Min_cycle;Max_cycle;Signal;HPM_P1;HPM_P2
2022/05/26 00:01:07;;;;;;;4.70;2.00;;;;;;;;;;5055798;28;20923;-65
2022/05/26 00:03:35;;;;;;;2.83;2.37;;;;;;;;;;5055546;28;20917;-66
2022/05/26 00:06:02;;;;;;;3.27;2.20;;;;;;;;;;5055574;28;20540;-66
2022/05/26 00:08:30;;;;;;;3.50;2.30;;;;;;;;;;5054944;28;20540;-65
2022/05/26 00:10:57;;;;;;;4.03;1.80;;;;;;;;;;5054762;28;20481;-65
2022/05/26 00:13:26;;;;;;;3.27;2.13;;;;;;;;;;5054639;28;20439;-65
2022/05/26 00:15:53;;;;;;;4.07;2.20;;;;;;;;;;5055384;28;20448;-66
2022/05/26 00:18:20;;;;;;;3.10;2.80;;;;;;;;;;5054895;28;20469;-66
2022/05/26 00:20:48;;;;;;;2.70;2.50;;;;;;;;;;5054692;28;20445;-66
2022/05/26 00:23:15;;;;;;;4.40;2.47;;;;;;;;;;5054567;28;20450;-66
2022/05/26 00:25:42;;;;;;;3.77;2.50;;;;;;;;;;5054823;28;20471;-66
2022/05/26 00:28:09;;;;;;;6.20;2.77;;;;;;;;;;5055038;28;20453;-65
2022/05/26 00:30:38;;;;;;;3.43;2.90;;;;;;;;;;5054293;28;21011;-65
2022/05/26 00:33:06;;;;;;;2.70;2.50;;;;;;;;;;5054413;28;20440;-66
2022/05/26 00:35:34;;;;;;;2.70;2.47;;;;;;;;;;5054011;28;20456;-65
2022/05/26 00:38:02;;;;;;;9.73;2.50;;;;;;;;;;5054321;28;20980;-65
2022/05/26 00:40:30;;;;;;;10.07;3.83;;;;;;;;;;5054105;28;20446;-65
2022/05/26 00:42:57;;;;;;;4.27;2.80;;;;;;;;;;5054423;28;20452;-66
2022/05/26 00:45:25;;;;;;;4.20;2.50;;;;;;;;;;5054403;28;20439;-66
2022/05/26 00:47:54;;;;;;;5.33;3.30;;;;;;;;;;5054388;28;20448;-66
2022/05/26 00:50:22;;;;;;;3.30;2.80;;;;;;;;;;5054301;28;20821;-66
2022/05/26 00:52:51;;;;;;;3.67;2.37;;;;;;;;;;5054217;28;20479;-66
2022/05/26 00:55:22;;;;;;;7.10;2.80;;;;;;;;;;5053841;28;20443;-66
2022/05/26 00:57:51;;;;;;;5.90;3.43;;;;;;;;;;5055149;28;20440;-65
2022/05/26 01:00:20;;;;;;;5.23;2.50;;;;;;;;;;5053889;28;20449;-65
2022/05/26 01:02:49;;;;;;;2.90;2.60;;;;;;;;;;5054660;28;20550;-65
2022/05/26 01:05:21;;;;;;;2.83;2.50;;;;;;;;;;5053805;28;20538;-65
2022/05/26 01:07:48;;;;;;;6.57;3.37;;;;;;;;;;5053751;28;20434;-65
2022/05/26 01:10:17;;;;;;;2.97;2.70;;;;;;;;;;5053911;28;20444;-65
2022/05/26 01:12:44;;;;;;;7.57;2.80;;;;;;;;;;5054071;28;20477;-65
2022/05/26 01:15:13;;;;;;;3.37;2.57;;;;;;;;;;5053760;28;20450;-65
2022/05/26 01:17:46;;;;;;;6.87;3.00;;;;;;;;;;5053867;28;20891;-64
2022/05/26 01:20:31;;;;;;;6.53;2.93;;;;;;;;;;5053909;28;20432;-64
2022/05/26 01:23:17;;;;;;;5.07;2.87;;;;;;;;;;5053574;28;20431;-65
2022/05/26 01:25:58;;;;;;;2.93;2.73;;;;;;;;;;5053920;28;20429;-65
2022/05/26 01:28:34;;;;;;;6.63;2.63;;;;;;;;;;5054270;28;20440;-66
2022/05/26 01:31:13;;;;;;;8.50;3.03;;;;;;;;;;5053793;28;20467;-65
2022/05/26 01:33:45;;;;;;;5.37;3.20;;;;;;;;;;5053826;28;20448;-65
2022/05/26 01:36:15;;;;;;;3.27;3.07;;;;;;;;;;5053402;28;20521;-65
2022/05/26 01:38:49;;;;;;;2.87;2.50;;;;;;;;;;5053315;28;20443;-65
2022/05/26 01:41:22;;;;;;;4.00;3.60;;;;;;;;;;5053616;28;20445;-65
2022/05/26 01:43:54;;;;;;;3.73;3.07;;;;;;;;;;5053225;28;20434;-66
2022/05/26 01:46:27;;;;;;;3.83;3.43;;;;;;;;;;5053585;28;20437;-65
2022/05/26 01:48:57;;;;;;;4.13;3.47;;;;;;;;;;5053306;28;20428;-65
2022/05/26 01:51:27;;;;;;;3.23;2.90;;;;;;;;;;5053482;28;20839;-66
2022/05/26 01:54:00;;;;;;;3.40;3.07;;;;;;;;;;5054245;28;20433;-66
2022/05/26 01:56:29;;;;;;;7.80;3.60;;;;;;;;;;5053064;28;20446;-66
2022/05/26 01:59:00;;;;;;;3.63;3.33;;;;;;;;;;5053459;28;20439;-69
2022/05/26 02:01:30;;;;;;;3.37;3.10;;;;;;;;;;5053023;28;20427;-66
2022/05/26 02:03:59;;;;;;;6.07;3.90;;;;;;;;;;5054330;28;20448;-66
2022/05/26 02:06:29;;;;;;;7.97;3.93;;;;;;;;;;5053531;28;20604;-66
2022/05/26 02:08:58;;;;;;;6.50;4.10;;;;;;;;;;5053250;28;20445;-65
2022/05/26 02:11:26;;;;;;;5.57;4.00;;;;;;;;;;5055146;28;20481;-66
2022/05/26 02:13:55;;;;;;;7.70;4.10;;;;;;;;;;5057386;28;20498;-66
2022/05/26 02:16:24;;;;;;;4.50;4.10;;;;;;;;;;5057093;28;20455;-65
2022/05/26 02:18:55;;;;;;;5.67;4.23;;;;;;;;;;5057269;28;20442;-65
2022/05/26 02:21:27;;;;;;;5.37;4.67;;;;;;;;;;5057252;28;20426;-65
2022/05/26 02:23:59;;;;;;;4.90;4.50;;;;;;;;;;5057166;28;20529;-65
2022/05/26 02:26:27;;;;;;;8.17;5.47;;;;;;;;;;5056777;28;20496;-66
2022/05/26 02:31:40;;;;;;;6.37;4.73;;;;;;;;;;5056830;28;20480;-65
2022/05/26 02:34:08;;;;;;;4.70;4.40;;;;;;;;;;5056647;28;20947;-65
2022/05/26 02:36:36;;;;;;;5.57;4.30;;;;;;;;;;5056433;28;20672;-65
2022/05/26 02:39:04;;;;;;;5.03;4.53;;;;;;;;;;5056566;28;20458;-65
2022/05/26 02:41:31;;;;;;;4.43;4.13;;;;;;;;;;5056408;28;20452;-65
2022/05/26 02:43:59;;;;;;;8.83;4.20;;;;;;;;;;5056509;28;20449;-65
2022/05/26 02:46:31;;;;;;;4.90;4.40;;;;;;;;;;5056636;28;20439;-65
2022/05/26 02:49:04;;;;;;;6.57;4.93;;;;;;;;;;5057590;28;20423;-65
2022/05/26 02:51:38;;;;;;;7.97;4.97;;;;;;;;;;5056535;28;20470;-65
2022/05/26 02:54:08;;;;;;;6.30;5.13;;;;;;;;;;5057057;28;20791;-65
2022/05/26 02:56:41;;;;;;;4.93;4.47;;;;;;;;;;5056737;28;20776;-65
2022/05/26 02:59:13;;;;;;;6.20;4.60;;;;;;;;;;5056289;28;20458;-65
2022/05/26 03:01:43;;;;;;;5.83;4.80;;;;;;;;;;5056076;28;20473;-65
2022/05/26 03:04:16;;;;;;;9.60;5.43;;;;;;;;;;5056469;28;20434;-64
2022/05/26 03:06:46;;;;;;;5.40;4.60;;;;;;;;;;5056622;28;20466;-65
2022/05/26 03:09:14;;;;;;;5.07;4.67;;;;;;;;;;5056345;28;20427;-65
2022/05/26 03:11:47;;;;;;;8.13;4.90;;;;;;;;;;5055803;28;20577;-65
2022/05/26 03:14:14;;;;;;;6.27;4.93;;;;;;;;;;5056107;28;20427;-65
2022/05/26 03:16:41;;;;;;;7.00;5.73;;;;;;;;;;5056122;28;20453;-65
2022/05/26 03:19:09;;;;;;;6.03;5.27;;;;;;;;;;5056264;28;20519;-65
2022/05/26 03:21:36;;;;;;;6.10;5.50;;;;;;;;;;5055754;28;20443;-65
2022/05/26 03:24:05;;;;;;;6.77;5.33;;;;;;;;;;5055501;28;20449;-65
2022/05/26 03:26:32;;;;;;;5.90;5.33;;;;;;;;;;5055926;28;20441;-65
2022/05/26 03:28:59;;;;;;;5.83;5.37;;;;;;;;;;5055654;28;20454;-65
2022/05/26 03:31:26;;;;;;;6.80;6.20;;;;;;;;;;5055799;28;20989;-66
2022/05/26 03:42:11;;;;;;;7.83;6.63;;;;;;;;;;5055626;28;20437;-65
2022/05/26 03:44:39;;;;;;;8.27;5.87;;;;;;;;;;5055633;28;20810;-67
2022/05/26 03:47:07;;;;;;;8.53;7.73;;;;;;;;;;5055758;28;20806;-66
2022/05/26 03:49:34;;;;;;;6.93;6.27;;;;;;;;;;5055549;28;20786;-66
2022/05/26 03:52:01;;;;;;;8.37;7.17;;;;;;;;;;5055160;28;20833;-65
2022/05/26 03:54:30;;;;;;;7.77;7.00;;;;;;;;;;5054728;28;20806;-65
2022/05/26 03:56:57;;;;;;;8.30;7.43;;;;;;;;;;5054646;28;20450;-66
2022/05/26 03:59:25;;;;;;;8.90;6.97;;;;;;;;;;5054739;28;20445;-66
2022/05/26 04:01:52;;;;;;;8.50;7.33;;;;;;;;;;5054426;28;20963;-66
2022/05/26 04:04:19;;;;;;;8.27;7.10;;;;;;;;;;5054937;28;20452;-66
2022/05/26 04:06:48;;;;;;;8.33;6.80;;;;;;;;;;5055118;28;20449;-66
2022/05/26 04:09:16;;;;;;;7.07;6.37;;;;;;;;;;5054720;28;20589;-66
2022/05/26 04:11:45;;;;;;;7.70;7.00;;;;;;;;;;5054625;28;20446;-66
2022/05/26 04:14:12;;;;;;;7.97;7.17;;;;;;;;;;5055071;28;20493;-65
2022/05/26 04:16:39;;;;;;;9.80;8.83;;;;;;;;;;5055289;28;20447;-65
2022/05/26 04:19:07;;;;;;;7.90;7.10;;;;;;;;;;5055054;28;20486;-66
2022/05/26 04:21:34;;;;;;;9.33;7.40;;;;;;;;;;5054490;28;20451;-66
2022/05/26 04:24:01;;;;;;;16.50;8.60;;;;;;;;;;5054322;28;21126;-66
2022/05/26 04:26:29;;;;;;;8.37;7.57;;;;;;;;;;5054415;28;20930;-66
2022/05/26 04:29:13;;;;;;;9.70;7.43;;;;;;;;;;5054419;28;20451;-66
2022/05/26 04:31:41;;;;;;;8.60;7.70;;;;;;;;;;5054752;28;20423;-66
2022/05/26 04:34:08;;;;;;;12.57;8.70;;;;;;;;;;5053565;28;20502;-66
2022/05/26 04:36:35;;;;;;;8.87;7.90;;;;;;;;;;5054058;28;20484;-66
2022/05/26 04:39:02;;;;;;;10.60;7.90;;;;;;;;;;5054499;28;20867;-66
2022/05/26 04:41:29;;;;;;;9.33;8.43;;;;;;;;;;5054170;28;20927;-66
2022/05/26 04:43:58;;;;;;;11.30;8.63;;;;;;;;;;5054270;28;20872;-66
2022/05/26 04:46:25;;;;;;;12.57;9.00;;;;;;;;;;5054306;28;20448;-66
2022/05/26 04:48:52;;;;;;;13.50;9.47;;;;;;;;;;5053645;28;20447;-66
2022/05/26 04:51:20;;;;;;;14.50;9.07;;;;;;;;;;5054568;28;20444;-66
2022/05/26 04:53:47;;;;;;;15.47;10.70;;;;;;;;;;5053881;28;20991;-66
2022/05/26 04:56:14;;;;;;;13.27;9.00;;;;;;;;;;5054274;28;20445;-66
2022/05/26 04:58:41;;;;;;;10.00;8.27;;;;;;;;;;5054131;28;20549;-66
2022/05/26 05:01:14;;;;;;;16.03;9.97;;;;;;;;;;5053754;28;20444;-65
2022/05/26 05:03:41;;;;;;;12.77;9.63;;;;;;;;;;5054028;28;20435;-66
2022/05/26 05:06:09;;;;;;;14.73;9.90;;;;;;;;;;5053527;28;20447;-66
2022/05/26 05:08:36;;;;;;;14.10;9.93;;;;;;;;;;5053896;28;20474;-66
2022/05/26 05:11:03;;;;;;;15.33;10.87;;;;;;;;;;5053897;28;20449;-66
2022/05/26 05:13:32;;;;;;;11.37;10.03;;;;;;;;;;5053419;28;20518;-66
2022/05/26 05:16:03;;;;;;;18.10;11.20;;;;;;;;;;5053624;28;20533;-66
2022/05/26 05:18:32;;;;;;;15.90;10.47;;;;;;;;;;5053818;28;20844;-66
2022/05/26 05:21:02;;;;;;;18.63;9.47;;;;;;;;;;5053843;28;20565;-66
2022/05/26 05:23:30;;;;;;;13.67;10.10;;;;;;;;;;5053628;28;20531;-66
2022/05/26 05:25:58;;;;;;;13.60;10.20;;;;;;;;;;5053517;28;20448;-66
2022/05/26 05:28:28;;;;;;;17.07;11.03;;;;;;;;;;5053207;28;20447;-66
2022/05/26 05:30:57;;;;;;;12.80;10.83;;;;;;;;;;5053300;28;20903;-67
2022/05/26 05:33:26;;;;;;;17.10;11.00;;;;;;;;;;5053157;28;20480;-66
2022/05/26 05:35:56;;;;;;;14.30;10.67;;;;;;;;;;5053927;28;20884;-67
2022/05/26 05:38:24;;;;;;;13.27;10.83;;;;;;;;;;5053297;28;20465;-67
2022/05/26 05:40:51;;;;;;;15.63;11.03;;;;;;;;;;5053229;28;20957;-67
2022/05/26 05:43:18;;;;;;;17.70;11.37;;;;;;;;;;5053471;28;20446;-67
2022/05/26 05:45:46;;;;;;;18.20;11.23;;;;;;;;;;5052508;28;20532;-68
2022/05/26 05:48:14;;;;;;;16.77;11.67;;;;;;;;;;5052947;28;20505;-68
2022/05/26 05:50:41;;;;;;;16.43;11.20;;;;;;;;;;5052913;28;20898;-69
2022/05/26 05:53:10;;;;;;;17.83;11.53;;;;;;;;;;5052431;28;20474;-67
2022/05/26 05:55:37;;;;;;;18.43;12.13;;;;;;;;;;5053361;28;20442;-66
2022/05/26 05:58:08;;;;;;;15.87;11.30;;;;;;;;;;5053035;28;20442;-67
2022/05/26 06:00:35;;;;;;;20.57;11.30;;;;;;;;;;5053480;28;20434;-67
2022/05/26 06:03:02;;;;;;;16.63;11.90;;;;;;;;;;5052770;28;20443;-66
2022/05/26 06:05:29;;;;;;;17.47;12.20;;;;;;;;;;5053350;28;20448;-66
2022/05/26 06:07:57;;;;;;;20.97;14.13;;;;;;;;;;5052991;28;20541;-67
2022/05/26 06:10:26;;;;;;;15.83;11.63;;;;;;;;;;5053297;28;20447;-67
2022/05/26 06:12:53;;;;;;;18.03;11.93;;;;;;;;;;5052864;28;20473;-67
2022/05/26 06:15:20;;;;;;;21.00;14.00;;;;;;;;;;5053140;28;20542;-66
2022/05/26 06:17:48;;;;;;;18.03;12.87;;;;;;;;;;5053427;28;20439;-66
2022/05/26 06:20:15;;;;;;;14.20;11.50;;;;;;;;;;5052964;28;20445;-67
2022/05/26 06:22:43;;;;;;;18.23;13.07;;;;;;;;;;5053122;28;20504;-67
2022/05/26 06:25:11;;;;;;;20.53;12.03;;;;;;;;;;5052707;28;20450;-67
2022/05/26 06:30:26;;;;;;;23.40;13.40;;;;;;;;;;5052863;28;20405;-67
2022/05/26 06:38:36;;;;;;;20.10;12.70;;;;;;;;;;4972090;28;20955;-66
2022/05/26 06:43:46;;;;;;;17.07;12.57;;;;;;;;;;5052401;28;20432;-66
2022/05/26 06:46:13;;;;;;;17.80;11.67;;;;;;;;;;5052654;28;20442;-66
2022/05/26 06:48:41;;;;;;;16.47;12.87;;;;;;;;;;5052801;28;20438;-67
2022/05/26 06:51:09;;;;;;;16.73;13.57;;;;;;;;;;5052911;28;20453;-67
2022/05/26 06:53:36;;;;;;;14.90;12.57;;;;;;;;;;5052961;28;20572;-67
2022/05/26 06:56:03;;;;;;;16.23;12.43;;;;;;;;;;5052372;28;20533;-67
2022/05/26 06:58:31;;;;;;;17.20;12.60;;;;;;;;;;5054970;28;20434;-67
2022/05/26 07:01:00;;;;;;;16.87;11.73;;;;;;;;;;5056303;28;20442;-67
2022/05/26 07:03:27;;;;;;;15.57;11.00;;;;;;;;;;5056056;28;20527;-67
2022/05/26 07:05:54;;;;;;;28.33;12.33;;;;;;;;;;5055948;28;20492;-67
2022/05/26 07:08:22;;;;;;;15.60;11.93;;;;;;;;;;5056282;28;20876;-67
2022/05/26 07:10:50;;;;;;;17.17;10.90;;;;;;;;;;5055875;28;20445;-67
2022/05/26 07:13:17;;;;;;;17.10;10.60;;;;;;;;;;5056067;28;20474;-67
2022/05/26 07:15:45;;;;;;;12.60;10.47;;;;;;;;;;5055793;28;20531;-68
2022/05/26 07:18:13;;;;;;;20.13;10.57;;;;;;;;;;5055982;28;20939;-67
2022/05/26 07:20:41;;;;;;;22.23;11.90;;;;;;;;;;5056067;28;20440;-66
2022/05/26 07:23:10;;;;;;;13.97;11.17;;;;;;;;;;5056053;28;20450;-67
2022/05/26 07:25:40;;;;;;;20.50;11.47;;;;;;;;;;5055880;28;20434;-66
2022/05/26 07:28:07;;;;;;;16.30;10.70;;;;;;;;;;5055904;28;20435;-66
2022/05/26 07:30:34;;;;;;;16.40;10.80;;;;;;;;;;5055993;28;20942;-67
2022/05/26 07:33:01;;;;;;;14.80;12.73;;;;;;;;;;5055460;28;20525;-68
2022/05/26 07:35:30;;;;;;;19.90;10.80;;;;;;;;;;5055441;28;20450;-66
2022/05/26 07:43:29;;;;;;;13.97;8.83;;;;;;;;;;5055568;28;20486;-68
2022/05/26 07:45:56;;;;;;;15.20;10.27;;;;;;;;;;5054351;28;20446;-67
2022/05/26 07:48:23;;;;;;;19.40;11.27;;;;;;;;;;5054651;28;20481;-68
2022/05/26 07:50:52;;;;;;;21.40;10.57;;;;;;;;;;5055088;28;20440;-68
2022/05/26 07:53:19;;;;;;;16.30;10.27;;;;;;;;;;5054779;28;21009;-68
2022/05/26 07:55:47;;;;;;;11.97;10.77;;;;;;;;;;5055201;28;20468;-67
2022/05/26 07:58:14;;;;;;;19.70;11.13;;;;;;;;;;5055279;28;20444;-68
2022/05/26 08:00:42;;;;;;;13.20;9.30;;;;;;;;;;5055285;28;20479;-67
2022/05/26 08:03:09;;;;;;;10.97;9.47;;;;;;;;;;5054945;28;20449;-67
2022/05/26 08:05:38;;;;;;;13.57;9.27;;;;;;;;;;5055172;28;20457;-67
2022/05/26 08:08:07;;;;;;;15.57;9.40;;;;;;;;;;5055087;28;20438;-68
2022/05/26 08:10:34;;;;;;;10.83;8.07;;;;;;;;;;5054772;28;20880;-68
2022/05/26 08:13:02;;;;;;;11.63;8.97;;;;;;;;;;5054751;28;20482;-67
2022/05/26 08:15:31;;;;;;;12.07;8.40;;;;;;;;;;5054306;28;20448;-67
2022/05/26 08:17:58;;;;;;;11.67;7.33;;;;;;;;;;5054944;28;20457;-67
2022/05/26 08:20:25;;;;;;;11.43;7.50;;;;;;;;;;5055143;28;20449;-67
2022/05/26 08:22:53;;;;;;;10.83;7.20;;;;;;;;;;5054514;28;20478;-67
2022/05/26 08:25:22;;;;;;;11.93;6.70;;;;;;;;;;5054437;28;20434;-67
2022/05/26 08:27:50;;;;;;;10.03;6.97;;;;;;;;;;5054464;28;20446;-67
2022/05/26 08:30:17;;;;;;;12.17;7.40;;;;;;;;;;5054991;28;20952;-67
2022/05/26 08:32:44;;;;;;;9.07;7.40;;;;;;;;;;5054388;28;20444;-68
2022/05/26 08:35:12;;;;;;;14.77;7.03;;;;;;;;;;5054065;28;20494;-67
2022/05/26 08:37:39;;;;;;;11.23;6.40;;;;;;;;;;5054684;28;20450;-67
2022/05/26 08:40:08;;;;;;;10.77;5.47;;;;;;;;;;5054117;28;20455;-67
2022/05/26 08:42:37;;;;;;;11.40;5.50;;;;;;;;;;5054102;28;20447;-67
2022/05/26 08:45:07;;;;;;;10.07;5.50;;;;;;;;;;5053781;28;20455;-67
2022/05/26 08:47:36;;;;;;;7.73;4.90;;;;;;;;;;5053777;28;20941;-67
2022/05/26 08:50:06;;;;;;;10.03;5.33;;;;;;;;;;5054322;28;20447;-67
2022/05/26 08:52:35;;;;;;;10.17;5.23;;;;;;;;;;5054549;28;20443;-68
2022/05/26 08:55:04;;;;;;;9.73;5.70;;;;;;;;;;5054018;28;20489;-67
2022/05/26 08:57:33;;;;;;;14.50;5.50;;;;;;;;;;5053920;28;20847;-68
2022/05/26 09:00:02;;;;;;;12.73;6.20;;;;;;;;;;5054030;28;20536;-68
2022/05/26 09:02:33;;;;;;;9.67;6.20;;;;;;;;;;5053870;28;20962;-68
2022/05/26 09:05:01;;;;;;;11.80;5.80;;;;;;;;;;5054019;28;20852;-70
2022/05/26 09:13:06;;;;;;;9.20;5.00;;;;;;;;;;5053374;28;20891;-68
2022/05/26 09:15:37;;;;;;;6.40;4.80;;;;;;;;;;5053391;28;20448;-68
2022/05/26 09:18:15;;;;;;;11.80;4.30;;;;;;;;;;5053633;28;20422;-68
2022/05/26 09:20:43;;;;;;;6.53;3.73;;;;;;;;;;5052989;28;20447;-68
2022/05/26 09:23:11;;;;;;;3.90;3.50;;;;;;;;;;5053422;28;20443;-70
2022/05/26 09:25:41;;;;;;;7.10;3.20;;;;;;;;;;5053678;28;20789;-70
2022/05/26 09:28:10;;;;;;;3.27;2.97;;;;;;;;;;5053450;28;20437;-70
2022/05/26 09:30:40;;;;;;;6.00;3.23;;;;;;;;;;5053618;28;20441;-69
2022/05/26 09:33:19;;;;;;;4.23;3.07;;;;;;;;;;5053087;28;20479;-68
2022/05/26 09:35:46;;;;;;;4.40;3.23;;;;;;;;;;5053511;28;20477;-69
2022/05/26 09:38:17;;;;;;;3.40;2.87;;;;;;;;;;5053558;28;20437;-69
2022/05/26 09:40:46;;;;;;;8.03;3.67;;;;;;;;;;5053213;28;20438;-66
2022/05/26 09:43:21;;;;;;;14.93;3.87;;;;;;;;;;5053095;28;20951;-69
2022/05/26 09:45:51;;;;;;;6.93;2.90;;;;;;;;;;5053194;28;20434;-67
2022/05/26 09:48:19;;;;;;;4.73;3.00;;;;;;;;;;5053183;28;20445;-69
2022/05/26 09:50:49;;;;;;;6.50;3.70;;;;;;;;;;5053435;28;20513;-69
2022/05/26 09:53:28;;;;;;;9.00;4.13;;;;;;;;;;5052699;28;20446;-68
2022/05/26 09:55:55;;;;;;;8.97;5.00;;;;;;;;;;5052910;28;20941;-67
2022/05/26 09:58:28;;;;;;;8.00;5.00;;;;;;;;;;5053387;28;20569;-69
2022/05/26 10:00:58;;;;;;;9.33;4.43;;;;;;;;;;5053698;28;20427;-69
2022/05/26 10:03:31;;;;;;;8.90;5.17;;;;;;;;;;5053648;28;20475;-68
2022/05/26 10:06:04;;;;;;;10.40;4.60;;;;;;;;;;5053759;28;20465;-68
2022/05/26 10:08:38;;;;;;;6.00;4.00;;;;;;;;;;5053653;28;20486;-68
2022/05/26 10:11:09;;;;;;;6.20;4.23;;;;;;;;;;5053384;28;20854;-69
2022/05/26 10:13:46;;;;;;;9.60;5.80;;;;;;;;;;5052718;28;20431;-68
2022/05/26 10:16:20;;;;;;;13.00;5.23;;;;;;;;;;5053415;28;20518;-68
2022/05/26 10:18:57;;;;;;;5.90;5.00;;;;;;;;;;5053172;28;20436;-68
2022/05/26 10:21:33;;;;;;;6.97;5.10;;;;;;;;;;5053148;28;20524;-67
2022/05/26 10:24:22;;;;;;;7.17;5.00;;;;;;;;;;5053318;28;20518;-69
2022/05/26 10:26:52;;;;;;;9.80;4.87;;;;;;;;;;5053718;28;20549;-68
2022/05/26 10:29:28;;;;;;;9.60;5.43;;;;;;;;;;5053486;28;20449;-68
2022/05/26 10:32:03;;;;;;;8.27;5.60;;;;;;;;;;5053056;28;20438;-68
2022/05/26 10:34:38;;;;;;;14.23;4.90;;;;;;;;;;5056076;28;20477;-68
2022/05/26 10:37:09;;;;;;;14.40;6.37;;;;;;;;;;5056049;28;20513;-68
2022/05/26 10:39:43;;;;;;;6.23;4.30;;;;;;;;;;5057595;28;20880;-68
2022/05/26 10:42:13;;;;;;;8.93;4.90;;;;;;;;;;5057230;28;20533;-68
2022/05/26 10:44:43;;;;;;;6.90;5.90;;;;;;;;;;5056452;28;20451;-68
2022/05/26 10:47:14;;;;;;;6.13;4.53;;;;;;;;;;5056383;28;21036;-68
2022/05/26 10:49:44;;;;;;;6.43;4.93;;;;;;;;;;5056770;28;20518;-69
2022/05/26 10:52:14;;;;;;;14.10;5.67;;;;;;;;;;5056992;28;20437;-68
2022/05/26 10:54:44;;;;;;;9.27;4.63;;;;;;;;;;5056115;28;20482;-69
2022/05/26 10:57:15;;;;;;;10.13;5.40;;;;;;;;;;5056429;28;20510;-68
2022/05/26 10:59:45;;;;;;;8.20;4.70;;;;;;;;;;5056471;28;20536;-68
2022/05/26 11:02:16;;;;;;;7.13;4.83;;;;;;;;;;5056002;28;20453;-68
2022/05/26 11:04:45;;;;;;;7.47;5.53;;;;;;;;;;5055999;28;20497;-69
2022/05/26 11:07:17;;;;;;;11.10;4.50;;;;;;;;;;5056098;28;20568;-68
2022/05/26 11:09:48;;;;;;;7.67;4.20;;;;;;;;;;5056245;28;20442;-69
2022/05/26 11:12:18;;;;;;;8.43;4.47;;;;;;;;;;5056449;28;20779;-69
2022/05/26 11:17:40;;;;;;;7.27;4.80;;;;;;;;;;5055696;28;20830;-68
2022/05/26 11:20:12;;;;;;;7.67;5.00;;;;;;;;;;5055914;28;20518;-68
2022/05/26 11:22:41;;;;;;;11.90;5.13;;;;;;;;;;5055777;28;20445;-69
2022/05/26 11:25:08;;;;;;;10.33;5.90;;;;;;;;;;5055672;28;20864;-68
2022/05/26 11:27:37;;;;;;;6.93;5.23;;;;;;;;;;5055879;28;20442;-69
2022/05/26 11:30:07;;;;;;;5.27;4.43;;;;;;;;;;5055908;28;20444;-68
2022/05/26 11:38:32;;;;;;;8.17;3.77;;;;;;;;;;5013415;28;20984;-67
2022/05/26 11:41:05;;;;;;;10.10;5.13;;;;;;;;;;5038143;28;20789;-67
2022/05/26 11:43:35;;;;;;;7.07;6.57;;;;;;;;;;5054568;28;20920;-67
2022/05/26 11:46:03;;;;;;;5.57;4.93;;;;;;;;;;5056168;28;20445;-67
2022/05/26 11:48:41;;;;;;;10.67;5.77;;;;;;;;;;5056023;28;20453;-67
2022/05/26 11:51:23;;;;;;;8.10;5.30;;;;;;;;;;5055162;28;20439;-67
2022/05/26 11:53:52;;;;;;;6.60;4.50;;;;;;;;;;5055209;28;20956;-67
2022/05/26 11:56:39;;;;;;;8.50;5.43;;;;;;;;;;5055470;28;20439;-67
2022/05/26 11:59:40;;;;;;;10.63;5.00;;;;;;;;;;5055506;28;20460;-69
2022/05/26 12:02:18;;;;;;;12.07;6.73;;;;;;;;;;5055053;28;20427;-68
2022/05/26 12:04:49;;;;;;;9.60;6.90;;;;;;;;;;5055023;28;20449;-68
2022/05/26 12:07:35;;;;;;;7.67;6.23;;;;;;;;;;5054995;28;20435;-67
2022/05/26 12:10:15;;;;;;;9.10;6.60;;;;;;;;;;5054828;28;20490;-68
2022/05/26 12:12:42;;;;;;;10.67;8.17;;;;;;;;;;5055454;28;20439;-68
2022/05/26 12:15:16;;;;;;;8.10;6.87;;;;;;;;;;5054874;28;20486;-68
2022/05/26 12:17:45;;;;;;;10.30;5.63;;;;;;;;;;5054882;28;20523;-68
2022/05/26 12:20:30;;;;;;;13.30;6.17;;;;;;;;;;5054891;28;20455;-69
2022/05/26 12:23:17;;;;;;;8.40;6.47;;;;;;;;;;5055267;28;20443;-68
2022/05/26 12:25:46;;;;;;;11.43;6.00;;;;;;;;;;5055178;28;20437;-68
2022/05/26 12:28:31;;;;;;;7.53;5.67;;;;;;;;;;5054490;28;20485;-68
2022/05/26 12:31:08;;;;;;;7.90;5.20;;;;;;;;;;5054384;28;20439;-68
2022/05/26 12:34:00;;;;;;;7.53;6.30;;;;;;;;;;5054412;28;20435;-69
2022/05/26 12:36:30;;;;;;;9.20;5.80;;;;;;;;;;5054193;28;20500;-68
2022/05/26 12:39:07;;;;;;;9.83;6.40;;;;;;;;;;5054484;28;20452;-68
2022/05/26 12:41:44;;;;;;;8.97;7.33;;;;;;;;;;5054663;28;20479;-68
2022/05/26 12:44:32;;;;;;;11.07;7.17;;;;;;;;;;5054187;28;20931;-68
2022/05/26 12:47:04;;;;;;;10.00;7.30;;;;;;;;;;5029011;28;20555;-68
2022/05/26 12:49:42;;;;;;;7.60;6.30;;;;;;;;;;5054043;28;20436;-68
2022/05/26 12:52:13;;;;;;;7.80;6.60;;;;;;;;;;5055048;28;20486;-68
2022/05/26 12:54:45;;;;;;;7.30;5.67;;;;;;;;;;5053656;28;20551;-68
2022/05/26 12:57:17;;;;;;;7.80;5.70;;;;;;;;;;5053911;28;20432;-68
2022/05/26 12:59:44;;;;;;;6.80;4.77;;;;;;;;;;5054151;28;20528;-69
2022/05/26 13:02:13;;;;;;;7.17;4.47;;;;;;;;;;5054255;28;20954;-68
2022/05/26 13:04:41;;;;;;;8.40;4.17;;;;;;;;;;5053933;28;20912;-68
2022/05/26 13:07:09;;;;;;;5.43;3.40;;;;;;;;;;5053834;28;20952;-68
2022/05/26 13:09:41;;;;;;;5.57;4.07;;;;;;;;;;5054287;28;20444;-68
2022/05/26 13:12:09;;;;;;;6.30;4.10;;;;;;;;;;5054099;28;20437;-68
2022/05/26 13:14:41;;;;;;;12.37;5.47;;;;;;;;;;5053819;28;20465;-68
2022/05/26 13:17:13;;;;;;;6.40;4.80;;;;;;;;;;5054271;28;20426;-68
2022/05/26 13:19:42;;;;;;;5.97;4.57;;;;;;;;;;5048889;28;20803;-68
2022/05/26 13:22:12;;;;;;;13.07;6.13;;;;;;;;;;5032726;28;20460;-68
2022/05/26 13:24:49;;;;;;;10.23;7.10;;;;;;;;;;5033564;28;20438;-68
2022/05/26 13:27:16;;;;;;;10.57;6.37;;;;;;;;;;5033162;28;20441;-68
2022/05/26 13:29:46;;;;;;;11.03;7.03;;;;;;;;;;5033423;28;20452;-68
2022/05/26 13:34:59;;;;;;;7.10;5.50;;;;;;;;;;5033626;28;20523;-68
2022/05/26 13:37:27;;;;;;;7.57;6.23;;;;;;;;;;5034065;28;20481;-68
2022/05/26 13:40:06;;;;;;;10.20;6.70;;;;;;;;;;5033348;28;20434;-68
2022/05/26 13:42:34;;;;;;;6.87;6.17;;;;;;;;;;5033355;28;20445;-68
2022/05/26 13:45:03;;;;;;;9.13;6.27;;;;;;;;;;5033512;28;20532;-68
2022/05/26 13:47:30;;;;;;;7.30;5.80;;;;;;;;;;5033262;28;20450;-67
2022/05/26 13:50:00;;;;;;;7.23;5.20;;;;;;;;;;5033132;28;20455;-68
2022/05/26 13:52:28;;;;;;;12.93;5.27;;;;;;;;;;5033880;28;20442;-68
2022/05/26 13:54:56;;;;;;;7.30;5.03;;;;;;;;;;5033087;28;20584;-68
2022/05/26 13:57:25;;;;;;;7.57;5.33;;;;;;;;;;5033828;28;20453;-68
2022/05/26 13:59:53;;;;;;;5.47;4.53;;;;;;;;;;5033177;28;20537;-68
2022/05/26 14:02:23;;;;;;;5.83;5.17;;;;;;;;;;5033131;28;20491;-68
2022/05/26 14:05:01;;;;;;;6.37;5.40;;;;;;;;;;5032849;28;20795;-68
2022/05/26 14:07:31;;;;;;;6.70;5.80;;;;;;;;;;5035048;28;20446;-67
2022/05/26 14:10:03;;;;;;;13.00;6.43;;;;;;;;;;5037151;28;20446;-68
2022/05/26 14:12:30;;;;;;;10.20;6.00;;;;;;;;;;5037466;28;20492;-69
2022/05/26 14:14:58;;;;;;;8.10;6.07;;;;;;;;;;5036923;28;20516;-68
2022/05/26 14:17:27;;;;;;;7.73;6.20;;;;;;;;;;5037547;28;20445;-68
2022/05/26 14:19:57;;;;;;;9.90;5.83;;;;;;;;;;5037287;28;20451;-68
2022/05/26 14:22:25;;;;;;;7.33;5.53;;;;;;;;;;5037306;28;20455;-69
2022/05/26 14:24:53;;;;;;;8.40;6.53;;;;;;;;;;5037163;28;20800;-67
2022/05/26 14:27:21;;;;;;;7.87;6.03;;;;;;;;;;5037096;28;20446;-68
2022/05/26 14:29:49;;;;;;;9.60;6.50;;;;;;;;;;5036592;28;20449;-67
2022/05/26 14:32:18;;;;;;;9.77;6.40;;;;;;;;;;5037336;28;20514;-68
2022/05/26 14:34:48;;;;;;;8.87;6.30;;;;;;;;;;5036419;28;20450;-67
2022/05/26 14:37:16;;;;;;;7.40;6.70;;;;;;;;;;5036682;28;20571;-68
2022/05/26 14:39:43;;;;;;;8.63;6.20;;;;;;;;;;5037211;28;20445;-68
2022/05/26 14:42:15;;;;;;;7.47;6.77;;;;;;;;;;5036487;28;20537;-68
2022/05/26 14:44:42;;;;;;;7.27;6.47;;;;;;;;;;5036913;28;20433;-68
2022/05/26 14:47:09;;;;;;;7.90;7.07;;;;;;;;;;5036230;28;20943;-68
2022/05/26 14:49:37;;;;;;;7.10;6.40;;;;;;;;;;5035924;28;20958;-68
2022/05/26 14:52:08;;;;;;;7.90;6.37;;;;;;;;;;5036520;28;20453;-68
2022/05/26 14:57:21;;;;;;;9.10;6.57;;;;;;;;;;5036373;28;20451;-68
2022/05/26 14:59:49;;;;;;;8.33;6.07;;;;;;;;;;5036214;28;20453;-68
2022/05/26 15:02:16;;;;;;;7.23;6.53;;;;;;;;;;5035989;28;20443;-68
2022/05/26 15:04:43;;;;;;;6.90;6.07;;;;;;;;;;5036028;28;20455;-68
2022/05/26 15:07:13;;;;;;;7.73;6.90;;;;;;;;;;5035812;28;20549;-67
2022/05/26 15:09:41;;;;;;;9.67;7.23;;;;;;;;;;5036058;28;20439;-68
2022/05/26 15:12:09;;;;;;;7.63;6.93;;;;;;;;;;5035829;28;20537;-67
2022/05/26 15:14:37;;;;;;;7.80;6.20;;;;;;;;;;5035941;28;20811;-67
2022/05/26 15:17:07;;;;;;;6.70;6.10;;;;;;;;;;5035971;28;20484;-67
2022/05/26 15:19:38;;;;;;;9.13;6.67;;;;;;;;;;5035559;28;20467;-67
2022/05/26 15:22:06;;;;;;;8.83;6.07;;;;;;;;;;5036280;28;20433;-69
2022/05/26 15:24:34;;;;;;;6.13;5.63;;;;;;;;;;5036110;28;20883;-67
2022/05/26 15:27:02;;;;;;;8.17;6.30;;;;;;;;;;5035952;28;20579;-69
2022/05/26 15:29:29;;;;;;;6.90;6.20;;;;;;;;;;5035527;28;20540;-68
2022/05/26 15:31:57;;;;;;;11.20;6.20;;;;;;;;;;5035779;28;20441;-68
2022/05/26 15:34:24;;;;;;;6.37;5.73;;;;;;;;;;5035576;28;21032;-67
2022/05/26 15:36:52;;;;;;;9.50;6.33;;;;;;;;;;5035782;28;20494;-68
2022/05/26 15:39:20;;;;;;;8.47;6.17;;;;;;;;;;5035545;28;20443;-69